createdAt,value
2019-04-26T00:00:39.896Z,0.00
2019-04-26T00:01:39.884Z,0.00
2019-04-26T00:02:39.885Z,0.00
2019-04-26T00:03:39.862Z,0.00
2019-04-26T00:04:39.870Z,0.00
2019-04-26T00:05:39.855Z,0.00
2019-04-26T00:06:39.831Z,0.00
2019-04-26T00:07:39.816Z,0.00
2019-04-26T00:08:39.805Z,0.00
2019-04-26T00:09:39.792Z,0.00
2019-04-26T00:10:39.807Z,0.00
2019-04-26T00:11:39.771Z,0.00
2019-04-26T00:12:39.766Z,0.00
2019-04-26T00:13:39.767Z,0.00
2019-04-26T00:14:39.737Z,0.00
2019-04-26T00:15:39.724Z,0.00
2019-04-26T00:16:39.738Z,0.00
2019-04-26T00:17:39.708Z,0.00
2019-04-26T00:18:39.699Z,0.00
2019-04-26T00:19:39.679Z,0.00
2019-04-26T00:20:39.691Z,0.00
2019-04-26T00:21:39.662Z,0.00
2019-04-26T00:22:39.671Z,0.00
2019-04-26T00:23:39.638Z,0.00
2019-04-26T00:24:39.651Z,0.00
2019-04-26T00:25:39.611Z,0.00
2019-04-26T00:26:39.600Z,0.00
2019-04-26T00:27:39.593Z,0.00
2019-04-26T00:28:39.597Z,0.00
2019-04-26T00:29:39.577Z,0.00
2019-04-26T00:30:39.558Z,0.00
2019-04-26T00:31:39.556Z,0.00
2019-04-26T00:32:39.531Z,0.00
2019-04-26T00:33:39.530Z,0.00
2019-04-26T00:34:39.529Z,0.00
2019-04-26T00:35:47.321Z,0.00
2019-04-26T00:36:40.489Z,0.00
2019-04-26T00:37:39.479Z,0.00
2019-04-26T00:38:39.467Z,0.00
2019-04-26T00:39:39.457Z,0.00
2019-04-26T00:40:39.474Z,0.00
2019-04-26T00:41:39.430Z,0.00
2019-04-26T00:42:39.421Z,0.00
2019-04-26T00:43:39.408Z,0.00
2019-04-26T00:44:39.397Z,0.00
2019-04-26T00:45:39.389Z,0.00
2019-04-26T00:46:39.395Z,0.00
2019-04-26T00:47:39.364Z,0.00
2019-04-26T00:48:39.355Z,0.00
2019-04-26T00:49:43.739Z,0.00
2019-04-26T00:50:39.328Z,0.00
2019-04-26T00:51:39.319Z,0.00
2019-04-26T00:52:39.426Z,0.00
2019-04-26T00:53:39.300Z,0.00
2019-04-26T00:54:39.298Z,0.00
2019-04-26T00:55:39.276Z,0.00
2019-04-26T00:56:39.267Z,0.00
2019-04-26T00:57:39.251Z,0.00
2019-04-26T00:58:39.255Z,0.00
2019-04-26T00:59:39.230Z,0.00
2019-04-26T01:00:39.224Z,0.00
2019-04-26T01:01:39.207Z,0.00
2019-04-26T01:02:39.200Z,0.00
2019-04-26T01:03:39.181Z,0.00
2019-04-26T01:04:39.185Z,0.00
2019-04-26T01:05:39.157Z,0.00
2019-04-26T01:06:39.145Z,0.00
2019-04-26T01:07:39.153Z,0.00
2019-04-26T01:08:39.151Z,0.00
2019-04-26T01:09:39.112Z,0.00
2019-04-26T01:10:39.118Z,0.00
2019-04-26T01:11:39.089Z,0.00
2019-04-26T01:12:39.078Z,0.00
2019-04-26T01:13:39.068Z,0.00
2019-04-26T01:14:39.056Z,0.00
2019-04-26T01:15:39.043Z,0.00
2019-04-26T01:16:39.076Z,0.00
2019-04-26T01:17:39.035Z,0.00
2019-04-26T01:18:39.009Z,0.00
2019-04-26T01:19:39.005Z,0.00
2019-04-26T01:20:38.987Z,0.00
2019-04-26T01:21:38.984Z,0.00
2019-04-26T01:22:38.980Z,0.00
2019-04-26T01:23:38.953Z,0.00
2019-04-26T01:24:38.941Z,0.00
2019-04-26T01:25:38.930Z,0.00
2019-04-26T01:26:38.922Z,0.00
2019-04-26T01:27:38.914Z,0.00
2019-04-26T01:28:38.913Z,0.00
2019-04-26T01:29:38.889Z,0.00
2019-04-26T01:30:38.875Z,0.00
2019-04-26T01:31:38.865Z,0.00
2019-04-26T01:32:38.853Z,0.00
2019-04-26T01:33:38.841Z,0.00
2019-04-26T01:34:38.850Z,0.00
2019-04-26T01:35:38.819Z,0.00
2019-04-26T01:36:38.827Z,0.00
2019-04-26T01:37:38.807Z,0.00
2019-04-26T01:38:38.786Z,0.00
2019-04-26T01:39:38.773Z,0.00
2019-04-26T01:40:38.786Z,0.00
2019-04-26T01:41:38.755Z,0.00
2019-04-26T01:42:38.741Z,0.00
2019-04-26T01:43:38.728Z,0.00
2019-04-26T01:44:38.719Z,0.00
2019-04-26T01:45:38.705Z,0.00
2019-04-26T01:46:38.714Z,0.00
2019-04-26T01:47:38.684Z,0.00
2019-04-26T01:48:38.674Z,0.00
2019-04-26T01:49:38.662Z,0.00
2019-04-26T01:50:38.652Z,0.00
2019-04-26T01:51:38.650Z,0.00
2019-04-26T01:52:38.649Z,0.00
2019-04-26T01:53:38.619Z,0.00
2019-04-26T01:54:38.613Z,0.00
2019-04-26T01:55:38.600Z,0.00
2019-04-26T01:56:38.590Z,0.00
2019-04-26T01:57:38.573Z,0.00
2019-04-26T01:58:38.580Z,0.00
2019-04-26T01:59:38.576Z,0.00
2019-04-26T02:00:38.543Z,0.00
2019-04-26T02:01:38.549Z,0.00
2019-04-26T02:02:38.517Z,0.00
2019-04-26T02:03:38.514Z,0.00
2019-04-26T02:04:38.517Z,0.00
2019-04-26T02:05:38.490Z,0.00
2019-04-26T02:06:38.471Z,0.00
2019-04-26T02:07:38.461Z,0.00
2019-04-26T02:08:38.451Z,0.00
2019-04-26T02:09:38.436Z,0.00
2019-04-26T02:10:38.441Z,0.00
2019-04-26T02:11:38.417Z,0.00
2019-04-26T02:12:38.405Z,0.00
2019-04-26T02:13:38.393Z,0.00
2019-04-26T02:14:38.380Z,0.00
2019-04-26T02:15:38.372Z,0.00
2019-04-26T02:16:38.389Z,0.00
2019-04-26T02:17:38.355Z,0.00
2019-04-26T02:18:38.355Z,0.00
2019-04-26T02:19:38.332Z,0.00
2019-04-26T02:20:38.312Z,0.00
2019-04-26T02:21:38.302Z,0.00
2019-04-26T02:22:38.311Z,0.00
2019-04-26T02:23:38.277Z,0.00
2019-04-26T02:24:38.267Z,0.00
2019-04-26T02:25:38.260Z,0.00
2019-04-26T02:26:38.246Z,0.00
2019-04-26T02:27:38.247Z,0.00
2019-04-26T02:28:38.241Z,0.00
2019-04-26T02:29:38.222Z,0.00
2019-04-26T02:30:38.207Z,0.00
2019-04-26T02:31:38.190Z,0.00
2019-04-26T02:32:38.180Z,0.00
2019-04-26T02:33:38.173Z,0.00
2019-04-26T02:34:38.537Z,0.00
2019-04-26T02:35:38.145Z,0.00
2019-04-26T02:36:56.139Z,0.00
2019-04-26T02:37:39.121Z,0.00
2019-04-26T02:38:38.141Z,0.00
2019-04-26T02:39:38.113Z,0.00
2019-04-26T02:40:38.105Z,0.00
2019-04-26T02:41:38.075Z,0.00
2019-04-26T02:42:38.189Z,0.00
2019-04-26T02:43:38.057Z,0.00
2019-04-26T02:44:38.430Z,0.00
2019-04-26T02:45:38.215Z,0.00
2019-04-26T02:46:38.128Z,0.00
2019-04-26T02:47:39.085Z,0.00
2019-04-26T02:48:38.043Z,0.00
2019-04-26T02:49:38.580Z,0.00
2019-04-26T02:50:38.390Z,0.00
2019-04-26T02:51:38.285Z,0.00
2019-04-26T02:52:39.174Z,0.00
2019-04-26T02:53:38.903Z,0.00
2019-04-26T02:54:38.389Z,0.00
2019-04-26T02:55:42.290Z,0.00
2019-04-26T02:56:40.018Z,0.00
2019-04-26T02:57:38.904Z,0.00
2019-04-26T02:58:39.145Z,0.00
2019-04-26T02:59:40.119Z,0.00
2019-04-26T03:00:39.157Z,0.00
2019-04-26T03:01:38.719Z,0.00
2019-04-26T03:02:40.208Z,0.00
2019-04-26T03:03:39.607Z,0.00
2019-04-26T03:04:39.343Z,0.00
2019-04-26T03:05:39.741Z,0.00
2019-04-26T03:06:39.136Z,0.00
2019-04-26T03:07:39.151Z,0.00
2019-04-26T03:08:39.345Z,0.00
2019-04-26T03:09:38.907Z,0.00
2019-04-26T03:10:38.638Z,0.00
2019-04-26T03:11:39.147Z,0.00
2019-04-26T03:12:39.482Z,0.00
2019-04-26T03:13:38.638Z,0.00
2019-04-26T03:14:38.513Z,0.00
2019-04-26T03:15:38.835Z,0.00
2019-04-26T03:16:39.447Z,0.00
2019-04-26T03:17:39.633Z,0.00
2019-04-26T03:18:39.484Z,0.00
2019-04-26T03:19:39.421Z,0.00
2019-04-26T03:20:38.345Z,0.00
2019-04-26T03:21:38.138Z,0.00
2019-04-26T03:22:39.415Z,0.00
2019-04-26T03:23:53.260Z,0.00
2019-04-26T03:24:39.314Z,0.00
2019-04-26T03:25:38.844Z,0.00
2019-04-26T03:26:39.510Z,0.00
2019-04-26T03:27:38.961Z,0.00
2019-04-26T03:28:39.407Z,0.00
2019-04-26T03:29:38.985Z,0.00
2019-04-26T03:30:42.306Z,0.00
2019-04-26T03:31:48.621Z,0.00
2019-04-26T03:32:47.873Z,0.00
2019-04-26T03:33:48.413Z,0.00
2019-04-26T03:34:45.516Z,0.00
2019-04-26T03:35:48.690Z,0.00
2019-04-26T03:36:40.737Z,0.00
2019-04-26T03:37:38.311Z,0.00
2019-04-26T03:38:38.248Z,0.00
2019-04-26T03:39:40.303Z,0.00
2019-04-26T03:40:38.941Z,0.00
2019-04-26T03:41:38.974Z,0.00
2019-04-26T03:42:38.791Z,0.00
2019-04-26T03:43:39.086Z,0.00
2019-04-26T03:44:38.984Z,0.00
2019-04-26T03:45:39.083Z,0.00
2019-04-26T03:46:39.032Z,0.00
2019-04-26T03:47:39.763Z,0.00
2019-04-26T03:48:39.279Z,0.00
2019-04-26T03:49:37.967Z,0.00
2019-04-26T03:50:38.831Z,0.00
2019-04-26T03:51:39.123Z,0.00
2019-04-26T03:52:39.507Z,0.00
2019-04-26T03:53:38.310Z,0.00
2019-04-26T03:54:39.214Z,0.00
2019-04-26T03:55:38.297Z,0.00
2019-04-26T03:56:38.599Z,0.00
2019-04-26T03:57:38.933Z,0.00
2019-04-26T03:58:38.547Z,0.00
2019-04-26T03:59:38.849Z,0.00
2019-04-26T04:00:38.785Z,0.00
2019-04-26T04:01:38.792Z,0.00
2019-04-26T04:02:38.866Z,0.00
2019-04-26T04:03:38.253Z,0.00
2019-04-26T04:04:38.882Z,0.00
2019-04-26T04:05:37.876Z,0.00
2019-04-26T04:06:56.592Z,0.00
2019-04-26T04:07:44.587Z,0.00
2019-04-26T04:08:39.897Z,0.00
2019-04-26T04:09:38.069Z,0.00
2019-04-26T04:10:39.319Z,0.00
2019-04-26T04:11:38.539Z,0.00
2019-04-26T04:12:38.461Z,0.00
2019-04-26T04:13:38.869Z,0.00
2019-04-26T04:14:38.290Z,0.00
2019-04-26T04:15:38.593Z,0.00
2019-04-26T04:16:38.683Z,0.00
2019-04-26T04:17:38.787Z,0.00
2019-04-26T04:18:38.838Z,0.00
2019-04-26T04:19:38.532Z,0.00
2019-04-26T04:20:38.329Z,0.00
2019-04-26T04:21:38.651Z,0.00
2019-04-26T04:22:39.077Z,0.00
2019-04-26T04:23:37.543Z,0.00
2019-04-26T04:24:39.127Z,0.00
2019-04-26T04:25:39.269Z,0.00
2019-04-26T04:26:39.092Z,5.62
2019-04-26T04:27:38.245Z,5.62
2019-04-26T04:28:39.832Z,5.62
2019-04-26T04:29:42.789Z,5.62
2019-04-26T04:30:40.017Z,5.62
2019-04-26T04:31:38.358Z,5.62
2019-04-26T04:32:36.849Z,5.62
2019-04-26T04:33:36.814Z,11.25
2019-04-26T04:34:36.797Z,11.25
2019-04-26T04:35:36.793Z,11.25
2019-04-26T04:36:36.775Z,11.25
2019-04-26T04:37:52.572Z,11.25
2019-04-26T04:38:37.766Z,11.25
2019-04-26T04:39:36.749Z,11.25
2019-04-26T04:40:36.739Z,11.25
2019-04-26T04:41:36.718Z,11.25
2019-04-26T04:42:36.741Z,11.25
2019-04-26T04:43:36.711Z,11.25
2019-04-26T04:44:36.702Z,11.25
2019-04-26T04:45:36.691Z,11.25
2019-04-26T04:46:36.667Z,11.25
2019-04-26T04:47:36.671Z,11.25
2019-04-26T04:48:36.644Z,11.25
2019-04-26T04:49:36.633Z,11.25
2019-04-26T04:50:36.632Z,11.25
2019-04-26T04:51:36.609Z,11.25
2019-04-26T04:52:36.598Z,16.88
2019-04-26T04:53:36.596Z,16.88
2019-04-26T04:54:36.590Z,16.88
2019-04-26T04:55:36.560Z,16.88
2019-04-26T04:56:36.575Z,22.50
2019-04-26T04:57:36.538Z,22.50
2019-04-26T04:58:36.524Z,28.12
2019-04-26T04:59:36.512Z,33.75
2019-04-26T05:00:36.505Z,33.75
2019-04-26T05:01:36.495Z,33.75
2019-04-26T05:02:36.544Z,39.38
2019-04-26T05:03:36.465Z,39.38
2019-04-26T05:04:36.453Z,39.38
2019-04-26T05:05:36.442Z,45.00
2019-04-26T05:06:36.439Z,45.00
2019-04-26T05:07:36.419Z,39.38
2019-04-26T05:08:36.430Z,39.38
2019-04-26T05:09:36.397Z,39.38
2019-04-26T05:10:36.395Z,39.38
2019-04-26T05:11:36.374Z,39.38
2019-04-26T05:12:36.376Z,33.75
2019-04-26T05:13:36.350Z,33.75
2019-04-26T05:14:36.363Z,33.75
2019-04-26T05:15:36.333Z,33.75
2019-04-26T05:16:36.328Z,33.75
2019-04-26T05:17:36.315Z,33.75
2019-04-26T05:18:36.297Z,33.75
2019-04-26T05:19:36.281Z,33.75
2019-04-26T05:20:36.313Z,33.75
2019-04-26T05:21:36.267Z,39.38
2019-04-26T05:22:36.247Z,39.38
2019-04-26T05:23:36.238Z,39.38
2019-04-26T05:24:36.239Z,45.00
2019-04-26T05:25:36.212Z,45.00
2019-04-26T05:26:36.228Z,45.00
2019-04-26T05:27:36.197Z,45.00
2019-04-26T05:28:36.179Z,45.00
2019-04-26T05:29:36.191Z,39.38
2019-04-26T05:30:36.167Z,39.38
2019-04-26T05:31:36.144Z,39.38
2019-04-26T05:32:36.151Z,39.38
2019-04-26T05:33:36.120Z,45.00
2019-04-26T05:34:36.110Z,56.25
2019-04-26T05:35:36.099Z,67.50
2019-04-26T05:36:36.096Z,73.12
2019-04-26T05:37:37.259Z,84.38
2019-04-26T05:38:36.080Z,90.00
2019-04-26T05:39:36.055Z,101.25
2019-04-26T05:40:36.050Z,106.88
2019-04-26T05:41:36.032Z,112.50
2019-04-26T05:42:36.021Z,118.12
2019-04-26T05:43:36.012Z,112.50
2019-04-26T05:44:36.019Z,112.50
2019-04-26T05:45:35.988Z,112.50
2019-04-26T05:46:35.996Z,112.50
2019-04-26T05:47:35.963Z,112.50
2019-04-26T05:48:35.950Z,112.50
2019-04-26T05:49:35.945Z,112.50
2019-04-26T05:50:35.951Z,112.50
2019-04-26T05:51:35.921Z,118.12
2019-04-26T05:52:35.907Z,118.12
2019-04-26T05:53:35.941Z,123.75
2019-04-26T05:54:35.884Z,123.75
2019-04-26T05:55:35.874Z,123.75
2019-04-26T05:56:35.916Z,123.75
2019-04-26T05:57:35.850Z,118.12
2019-04-26T05:58:35.839Z,118.12
2019-04-26T05:59:35.853Z,123.75
2019-04-26T06:00:35.830Z,123.75
2019-04-26T06:01:35.800Z,129.38
2019-04-26T06:02:35.812Z,135.00
2019-04-26T06:03:35.796Z,135.00
2019-04-26T06:04:35.773Z,140.62
2019-04-26T06:05:35.755Z,140.62
2019-04-26T06:06:35.750Z,146.25
2019-04-26T06:07:35.741Z,146.25
2019-04-26T06:08:35.758Z,146.25
2019-04-26T06:09:35.716Z,140.62
2019-04-26T06:10:35.738Z,129.38
2019-04-26T06:11:35.689Z,129.38
2019-04-26T06:12:35.678Z,140.62
2019-04-26T06:13:35.671Z,157.50
2019-04-26T06:14:35.674Z,174.38
2019-04-26T06:15:35.648Z,174.38
2019-04-26T06:16:35.630Z,174.38
2019-04-26T06:17:35.624Z,168.75
2019-04-26T06:18:35.621Z,174.38
2019-04-26T06:19:35.604Z,174.38
2019-04-26T06:20:35.634Z,180.00
2019-04-26T06:21:35.574Z,180.00
2019-04-26T06:22:35.567Z,180.00
2019-04-26T06:23:35.552Z,174.38
2019-04-26T06:24:35.547Z,168.75
2019-04-26T06:25:35.528Z,157.50
2019-04-26T06:26:35.542Z,140.62
2019-04-26T06:27:35.506Z,129.38
2019-04-26T06:28:35.515Z,118.12
2019-04-26T06:29:35.486Z,112.50
2019-04-26T06:30:45.328Z,106.88
2019-04-26T06:31:36.484Z,101.25
2019-04-26T06:32:35.542Z,101.25
2019-04-26T06:33:35.451Z,95.62
2019-04-26T06:34:35.431Z,95.62
2019-04-26T06:35:35.425Z,95.62
2019-04-26T06:36:35.416Z,95.62
2019-04-26T06:37:35.420Z,95.62
2019-04-26T06:38:43.656Z,101.25
2019-04-26T06:39:36.372Z,101.25
2019-04-26T06:40:41.878Z,106.88
2019-04-26T06:41:36.345Z,106.88
2019-04-26T06:42:35.378Z,112.50
2019-04-26T06:43:35.340Z,112.50
2019-04-26T06:44:35.312Z,112.50
2019-04-26T06:45:35.301Z,112.50
2019-04-26T06:46:35.290Z,112.50
2019-04-26T06:47:35.286Z,112.50
2019-04-26T06:48:35.265Z,112.50
2019-04-26T06:49:35.270Z,112.50
2019-04-26T06:50:35.251Z,112.50
2019-04-26T06:51:35.243Z,112.50
2019-04-26T06:52:35.225Z,112.50
2019-04-26T06:53:35.212Z,106.88
2019-04-26T06:54:35.211Z,112.50
2019-04-26T06:55:35.228Z,112.50
2019-04-26T06:56:35.181Z,118.12
2019-04-26T06:57:35.175Z,123.75
2019-04-26T06:58:35.155Z,123.75
2019-04-26T06:59:36.591Z,129.38
2019-04-26T07:00:35.133Z,123.75
2019-04-26T07:01:35.134Z,123.75
2019-04-26T07:02:35.116Z,118.12
2019-04-26T07:03:35.097Z,118.12
2019-04-26T07:04:35.083Z,123.75
2019-04-26T07:05:35.072Z,123.75
2019-04-26T07:06:35.493Z,123.75
2019-04-26T07:07:35.077Z,129.38
2019-04-26T07:08:35.038Z,135.00
2019-04-26T07:09:35.024Z,140.62
2019-04-26T07:10:35.028Z,146.25
2019-04-26T07:11:35.015Z,151.88
2019-04-26T07:12:34.992Z,151.88
2019-04-26T07:13:34.997Z,157.50
2019-04-26T07:14:34.969Z,157.50
2019-04-26T07:15:34.963Z,157.50
2019-04-26T07:16:34.954Z,163.12
2019-04-26T07:17:34.937Z,174.38
2019-04-26T07:18:34.924Z,180.00
2019-04-26T07:19:34.941Z,196.88
2019-04-26T07:20:34.903Z,219.38
2019-04-26T07:21:34.915Z,236.25
2019-04-26T07:22:35.815Z,258.75
2019-04-26T07:23:34.866Z,270.00
2019-04-26T07:24:34.859Z,281.25
2019-04-26T07:25:34.864Z,286.88
2019-04-26T07:26:34.839Z,281.25
2019-04-26T07:27:34.820Z,270.00
2019-04-26T07:28:34.811Z,270.00
2019-04-26T07:29:34.805Z,275.62
2019-04-26T07:30:34.788Z,275.62
2019-04-26T07:31:34.795Z,281.25
2019-04-26T07:32:34.765Z,298.12
2019-04-26T07:33:34.755Z,315.00
2019-04-26T07:34:34.748Z,326.25
2019-04-26T07:35:34.739Z,331.88
2019-04-26T07:36:34.726Z,326.25
2019-04-26T07:37:34.725Z,326.25
2019-04-26T07:38:34.696Z,320.62
2019-04-26T07:39:34.696Z,315.00
2019-04-26T07:40:34.680Z,309.38
2019-04-26T07:41:34.666Z,298.12
2019-04-26T07:42:34.652Z,298.12
2019-04-26T07:43:34.661Z,303.75
2019-04-26T07:44:34.653Z,326.25
2019-04-26T07:45:34.622Z,354.38
2019-04-26T07:46:34.624Z,388.12
2019-04-26T07:47:34.597Z,410.62
2019-04-26T07:48:34.589Z,421.88
2019-04-26T07:49:34.604Z,410.62
2019-04-26T07:50:34.563Z,399.38
2019-04-26T07:51:34.555Z,399.38
2019-04-26T07:52:34.540Z,405.00
2019-04-26T07:53:34.528Z,416.25
2019-04-26T07:54:34.547Z,427.50
2019-04-26T07:55:34.530Z,444.38
2019-04-26T07:56:34.495Z,450.00
2019-04-26T07:57:34.480Z,438.75
2019-04-26T07:58:34.471Z,427.50
2019-04-26T07:59:34.465Z,416.25
2019-04-26T08:00:44.369Z,410.62
2019-04-26T08:01:35.459Z,405.00
2019-04-26T08:02:34.421Z,410.62
2019-04-26T08:03:34.410Z,410.62
2019-04-26T08:04:34.399Z,416.25
2019-04-26T08:05:34.389Z,410.62
2019-04-26T08:06:34.372Z,399.38
2019-04-26T08:07:34.388Z,388.12
2019-04-26T08:08:34.349Z,371.25
2019-04-26T08:09:34.340Z,365.62
2019-04-26T08:10:34.323Z,371.25
2019-04-26T08:11:34.310Z,388.12
2019-04-26T08:12:34.301Z,405.00
2019-04-26T08:13:34.314Z,416.25
2019-04-26T08:14:34.291Z,421.88
2019-04-26T08:15:34.267Z,438.75
2019-04-26T08:16:34.252Z,450.00
2019-04-26T08:17:34.238Z,466.88
2019-04-26T08:18:34.227Z,478.12
2019-04-26T08:19:34.303Z,489.38
2019-04-26T08:20:34.211Z,495.00
2019-04-26T08:21:34.191Z,495.00
2019-04-26T08:22:34.179Z,489.38
2019-04-26T08:23:42.113Z,478.12
2019-04-26T08:24:35.189Z,466.88
2019-04-26T08:25:34.144Z,461.25
2019-04-26T08:26:34.131Z,450.00
2019-04-26T08:27:34.121Z,438.75
2019-04-26T08:28:34.108Z,427.50
2019-04-26T08:29:34.630Z,405.00
2019-04-26T08:30:34.103Z,371.25
2019-04-26T08:31:34.072Z,337.50
2019-04-26T08:32:34.060Z,320.62
2019-04-26T08:33:34.047Z,315.00
2019-04-26T08:34:34.039Z,303.75
2019-04-26T08:35:34.029Z,298.12
2019-04-26T08:36:34.047Z,298.12
2019-04-26T08:37:36.499Z,298.12
2019-04-26T08:38:33.989Z,303.75
2019-04-26T08:39:44.830Z,309.38
2019-04-26T08:40:34.964Z,326.25
2019-04-26T08:41:35.165Z,348.75
2019-04-26T08:42:33.953Z,360.00
2019-04-26T08:43:33.927Z,376.88
2019-04-26T08:44:34.704Z,388.12
2019-04-26T08:45:33.902Z,405.00
2019-04-26T08:46:36.257Z,416.25
2019-04-26T08:47:33.881Z,421.88
2019-04-26T08:48:33.886Z,410.62
2019-04-26T08:49:35.103Z,405.00
2019-04-26T08:50:33.843Z,393.75
2019-04-26T08:51:33.829Z,405.00
2019-04-26T08:52:33.841Z,416.25
2019-04-26T08:53:33.809Z,405.00
2019-04-26T08:54:33.820Z,427.50
2019-04-26T08:55:33.782Z,450.00
2019-04-26T08:56:33.771Z,427.50
2019-04-26T08:57:33.757Z,410.62
2019-04-26T08:58:33.761Z,399.38
2019-04-26T08:59:33.739Z,427.50
2019-04-26T09:00:33.737Z,427.50
2019-04-26T09:01:33.708Z,444.38
2019-04-26T09:02:33.696Z,466.88
2019-04-26T09:03:33.686Z,466.88
2019-04-26T09:04:33.674Z,500.62
2019-04-26T09:05:33.664Z,523.12
2019-04-26T09:06:33.668Z,528.75
2019-04-26T09:07:36.237Z,534.38
2019-04-26T09:08:33.637Z,573.75
2019-04-26T09:09:33.616Z,585.00
2019-04-26T09:10:33.605Z,601.88
2019-04-26T09:11:34.061Z,585.00
2019-04-26T09:12:33.606Z,562.50
2019-04-26T09:13:33.572Z,545.62
2019-04-26T09:14:33.560Z,528.75
2019-04-26T09:15:33.544Z,506.25
2019-04-26T09:16:33.536Z,466.88
2019-04-26T09:17:33.795Z,433.12
2019-04-26T09:18:43.158Z,416.25
2019-04-26T09:19:34.514Z,405.00
2019-04-26T09:20:33.489Z,399.38
2019-04-26T09:21:33.475Z,405.00
2019-04-26T09:22:33.467Z,416.25
2019-04-26T09:23:39.809Z,427.50
2019-04-26T09:24:34.461Z,455.62
2019-04-26T09:25:34.437Z,500.62
2019-04-26T09:26:33.463Z,551.25
2019-04-26T09:27:33.406Z,596.25
2019-04-26T09:28:33.397Z,607.50
2019-04-26T09:29:33.381Z,601.88
2019-04-26T09:30:34.603Z,596.25
2019-04-26T09:31:33.366Z,573.75
2019-04-26T09:32:33.346Z,556.88
2019-04-26T09:33:36.014Z,551.25
2019-04-26T09:34:33.354Z,568.12
2019-04-26T09:35:33.310Z,568.12
2019-04-26T09:36:33.319Z,506.25
2019-04-26T09:37:33.309Z,478.12
2019-04-26T09:38:33.277Z,506.25
2019-04-26T09:39:33.266Z,511.88
2019-04-26T09:40:33.257Z,517.50
2019-04-26T09:41:33.265Z,528.75
2019-04-26T09:42:33.250Z,528.75
2019-04-26T09:43:33.220Z,528.75
2019-04-26T09:44:33.210Z,506.25
2019-04-26T09:45:33.195Z,506.25
2019-04-26T09:46:33.190Z,500.62
2019-04-26T09:47:33.173Z,511.88
2019-04-26T09:48:33.180Z,534.38
2019-04-26T09:49:33.149Z,528.75
2019-04-26T09:50:33.139Z,517.50
2019-04-26T09:51:34.800Z,500.62
2019-04-26T09:52:34.115Z,483.75
2019-04-26T09:53:33.107Z,483.75
2019-04-26T09:54:33.136Z,455.62
2019-04-26T09:55:35.585Z,410.62
2019-04-26T09:56:33.074Z,416.25
2019-04-26T09:57:33.065Z,433.12
2019-04-26T10:00:24.636Z,489.38
2019-04-26T10:01:25.987Z,506.25
2019-04-26T10:02:24.590Z,534.38
2019-04-26T10:03:24.578Z,528.75
2019-04-26T10:04:24.573Z,495.00
2019-04-26T10:05:24.554Z,438.75
2019-04-26T10:06:26.160Z,388.12
2019-04-26T10:07:24.537Z,393.75
2019-04-26T10:08:24.520Z,405.00
2019-04-26T10:09:24.509Z,444.38
2019-04-26T10:10:24.504Z,483.75
2019-04-26T10:11:24.492Z,500.62
2019-04-26T10:12:24.497Z,489.38
2019-04-26T10:13:24.465Z,483.75
2019-04-26T10:14:24.453Z,472.50
2019-04-26T10:15:26.784Z,444.38
2019-04-26T10:16:24.433Z,405.00
2019-04-26T10:17:24.434Z,388.12
2019-04-26T10:18:25.914Z,410.62
2019-04-26T10:19:24.398Z,421.88
2019-04-26T10:20:24.388Z,472.50
2019-04-26T10:21:24.374Z,534.38
2019-04-26T10:22:24.365Z,585.00
2019-04-26T10:23:24.354Z,618.75
2019-04-26T10:24:24.364Z,635.62
2019-04-26T10:25:24.330Z,618.75
2019-04-26T10:26:28.139Z,596.25
2019-04-26T10:27:25.311Z,607.50
2019-04-26T10:28:24.297Z,641.25
2019-04-26T10:29:25.765Z,669.38
2019-04-26T10:30:24.293Z,686.25
2019-04-26T10:31:24.265Z,714.38
2019-04-26T10:32:26.430Z,753.75
2019-04-26T10:33:24.237Z,798.75
2019-04-26T10:34:24.230Z,838.12
2019-04-26T10:35:24.224Z,900.00
2019-04-26T10:36:26.267Z,990.00
2019-04-26T10:37:25.192Z,1035.00
2019-04-26T10:38:25.488Z,1074.38
2019-04-26T10:39:24.170Z,1158.75
2019-04-26T10:40:35.103Z,1158.75
2019-04-26T10:41:25.164Z,1158.75
2019-04-26T10:42:24.136Z,1215.00
2019-04-26T10:43:24.125Z,1141.88
2019-04-26T10:44:24.114Z,1102.50
2019-04-26T10:45:24.112Z,1119.38
2019-04-26T10:46:24.484Z,1203.75
2019-04-26T10:47:24.099Z,1445.62
2019-04-26T10:48:24.089Z,1698.75
2019-04-26T10:49:24.659Z,1681.88
2019-04-26T10:50:24.058Z,1558.12
2019-04-26T10:51:24.163Z,1338.75
2019-04-26T10:52:24.023Z,1316.25
2019-04-26T10:53:25.685Z,1485.00
2019-04-26T10:54:25.002Z,1136.25
2019-04-26T10:55:23.995Z,1068.75
2019-04-26T10:56:24.369Z,1035.00
2019-04-26T10:57:23.971Z,1158.75
2019-04-26T10:58:23.963Z,1023.75
2019-04-26T10:59:23.961Z,1018.12
2019-04-26T11:00:23.937Z,855.00
2019-04-26T11:01:23.921Z,871.88
2019-04-26T11:02:23.912Z,911.25
2019-04-26T11:03:23.905Z,798.75
2019-04-26T11:04:25.865Z,770.62
2019-04-26T11:05:23.901Z,821.25
2019-04-26T11:06:24.115Z,877.50
2019-04-26T11:07:23.858Z,877.50
2019-04-26T11:08:23.843Z,810.00
2019-04-26T11:09:23.833Z,798.75
2019-04-26T11:10:24.446Z,742.50
2019-04-26T11:11:23.820Z,663.75
2019-04-26T11:12:23.796Z,568.12
2019-04-26T11:13:23.790Z,461.25
2019-04-26T11:14:24.247Z,388.12
2019-04-26T11:15:23.771Z,337.50
2019-04-26T11:16:23.756Z,320.62
2019-04-26T11:17:23.764Z,410.62
2019-04-26T11:18:27.700Z,371.25
2019-04-26T11:19:23.724Z,371.25
2019-04-26T11:20:23.708Z,410.62
2019-04-26T11:21:23.695Z,455.62
2019-04-26T11:22:29.385Z,466.88
2019-04-26T11:23:24.691Z,433.12
2019-04-26T11:24:23.665Z,388.12
2019-04-26T11:25:24.613Z,427.50
2019-04-26T11:26:23.641Z,472.50
2019-04-26T11:27:23.629Z,540.00
2019-04-26T11:28:23.622Z,585.00
2019-04-26T11:29:24.971Z,607.50
2019-04-26T11:30:23.599Z,618.75
2019-04-26T11:31:27.770Z,596.25
2019-04-26T11:32:24.572Z,579.38
2019-04-26T11:33:23.563Z,562.50
2019-04-26T11:34:25.039Z,573.75
2019-04-26T11:35:23.570Z,579.38
2019-04-26T11:36:23.533Z,613.12
2019-04-26T11:37:23.526Z,646.88
2019-04-26T11:38:26.953Z,691.88
2019-04-26T11:39:24.514Z,725.62
2019-04-26T11:40:23.486Z,770.62
2019-04-26T11:41:23.518Z,821.25
2019-04-26T11:42:23.472Z,849.38
2019-04-26T11:43:23.457Z,849.38
2019-04-26T11:44:27.408Z,855.00
2019-04-26T11:45:23.430Z,888.75
2019-04-26T11:46:29.099Z,894.38
2019-04-26T11:47:24.428Z,911.25
2019-04-26T11:48:25.575Z,956.25
2019-04-26T11:49:24.395Z,911.25
2019-04-26T11:50:23.375Z,866.25
2019-04-26T11:51:27.145Z,922.50
2019-04-26T11:52:23.359Z,950.62
2019-04-26T11:53:23.364Z,961.88
2019-04-26T11:54:23.331Z,945.00
2019-04-26T11:55:25.434Z,900.00
2019-04-26T11:56:24.312Z,871.88
2019-04-26T11:57:23.301Z,871.88
2019-04-26T11:58:23.781Z,905.62
2019-04-26T11:59:23.398Z,967.50
2019-04-26T12:00:23.263Z,995.62
2019-04-26T12:01:23.256Z,911.25
2019-04-26T12:02:23.242Z,849.38
2019-04-26T12:03:24.823Z,826.88
2019-04-26T12:04:23.217Z,888.75
2019-04-26T12:05:23.225Z,916.88
2019-04-26T12:06:23.194Z,922.50
2019-04-26T12:07:23.215Z,922.50
2019-04-26T12:08:23.175Z,911.25
2019-04-26T12:09:23.224Z,916.88
2019-04-26T12:10:23.150Z,922.50
2019-04-26T12:11:30.358Z,877.50
2019-04-26T12:12:24.123Z,793.12
2019-04-26T12:13:25.104Z,759.38
2019-04-26T12:14:23.106Z,748.12
2019-04-26T12:15:30.070Z,821.25
2019-04-26T12:16:24.104Z,928.12
2019-04-26T12:17:23.078Z,956.25
2019-04-26T12:18:23.125Z,978.75
2019-04-26T12:19:23.046Z,967.50
2019-04-26T12:20:26.780Z,956.25
2019-04-26T12:21:24.030Z,950.62
2019-04-26T12:22:23.035Z,933.75
2019-04-26T12:23:23.000Z,916.88
2019-04-26T12:24:25.301Z,894.38
2019-04-26T12:25:23.976Z,860.62
2019-04-26T12:26:23.118Z,849.38
2019-04-26T12:27:26.466Z,826.88
2019-04-26T12:28:23.957Z,810.00
2019-04-26T12:29:22.932Z,798.75
2019-04-26T12:30:26.392Z,787.50
2019-04-26T12:31:22.912Z,787.50
2019-04-26T12:32:22.897Z,793.12
2019-04-26T12:33:22.885Z,810.00
2019-04-26T12:34:22.904Z,832.50
2019-04-26T12:35:22.865Z,877.50
2019-04-26T12:36:22.853Z,928.12
2019-04-26T12:37:22.840Z,973.12
2019-04-26T12:38:24.168Z,990.00
2019-04-26T12:39:23.839Z,973.12
2019-04-26T12:40:22.806Z,973.12
2019-04-26T12:41:39.559Z,984.38
2019-04-26T12:42:23.781Z,1001.25
2019-04-26T12:43:24.588Z,1018.12
2019-04-26T12:44:22.763Z,1029.38
2019-04-26T12:45:22.768Z,1018.12
2019-04-26T12:46:26.955Z,1006.88
2019-04-26T12:47:23.725Z,978.75
2019-04-26T12:48:22.719Z,967.50